createdAt,value
2017-07-28T00:00:38.520Z,14.63
2017-07-28T00:01:50.812Z,14.58
2017-07-28T00:03:03.330Z,14.66
2017-07-28T00:04:15.950Z,14.66
2017-07-28T00:05:28.453Z,14.63
2017-07-28T00:06:41.309Z,14.71
2017-07-28T00:07:53.914Z,14.58
2017-07-28T00:09:06.151Z,14.51
2017-07-28T00:10:18.429Z,14.66
2017-07-28T00:11:30.725Z,14.58
2017-07-28T00:12:43.307Z,14.62
2017-07-28T00:13:55.921Z,14.49
2017-07-28T00:15:08.548Z,14.61
2017-07-28T00:16:20.808Z,14.61
2017-07-28T00:17:33.430Z,14.59
2017-07-28T00:18:45.701Z,14.66
2017-07-28T00:19:58.332Z,14.66
2017-07-28T00:21:10.283Z,14.61
2017-07-28T00:22:22.864Z,14.66
2017-07-28T00:23:35.467Z,14.66
2017-07-28T00:24:47.767Z,14.62
2017-07-28T00:26:00.383Z,14.62
2017-07-28T00:27:12.727Z,14.63
2017-07-28T00:28:25.002Z,14.63
2017-07-28T00:29:37.264Z,14.73
2017-07-28T00:30:49.834Z,14.78
2017-07-28T00:32:02.155Z,14.78
2017-07-28T00:33:14.454Z,14.78
2017-07-28T00:34:26.735Z,14.78
2017-07-28T00:35:39.294Z,14.78
2017-07-28T00:36:51.842Z,14.77
2017-07-28T00:38:04.146Z,14.78
2017-07-28T00:39:16.709Z,14.78
2017-07-28T00:40:29.001Z,14.74
2017-07-28T00:41:41.315Z,14.74
2017-07-28T00:42:53.917Z,14.81
2017-07-28T00:44:06.531Z,14.9
2017-07-28T00:45:18.765Z,14.85
2017-07-28T00:46:31.039Z,14.89
2017-07-28T00:47:43.356Z,14.92
2017-07-28T00:48:55.967Z,14.89
2017-07-28T00:50:08.581Z,14.89
2017-07-28T00:51:20.807Z,14.87
2017-07-28T00:52:33.393Z,14.86
2017-07-28T00:53:45.755Z,14.87
2017-07-28T00:54:58.370Z,14.9
2017-07-28T00:56:10.399Z,14.9
2017-07-28T00:57:22.944Z,14.87
2017-07-28T00:58:35.242Z,14.89
2017-07-28T00:59:47.540Z,14.92
2017-07-28T01:01:00.358Z,14.87
2017-07-28T01:02:12.953Z,14.9
2017-07-28T01:03:25.229Z,14.93
2017-07-28T01:04:37.182Z,14.93
2017-07-28T01:05:49.783Z,14.97
2017-07-28T01:07:02.070Z,14.93
2017-07-28T01:08:14.044Z,14.93
2017-07-28T01:09:26.346Z,14.89
2017-07-28T01:10:38.328Z,14.92
2017-07-28T01:11:50.945Z,14.92
2017-07-28T01:13:03.291Z,14.9
2017-07-28T01:14:15.866Z,14.99
2017-07-28T01:15:28.135Z,14.92
2017-07-28T01:16:40.721Z,14.92
2017-07-28T01:17:53.275Z,14.92
2017-07-28T01:19:05.881Z,14.96
2017-07-28T01:20:17.853Z,14.9
2017-07-28T01:21:30.162Z,14.89
2017-07-28T01:22:42.995Z,14.97
2017-07-28T01:23:55.287Z,14.99
2017-07-28T01:25:07.302Z,15.04
2017-07-28T01:26:19.854Z,14.93
2017-07-28T01:27:32.190Z,14.99
2017-07-28T01:28:44.505Z,14.94
2017-07-28T01:29:57.093Z,14.96
2017-07-28T01:31:09.447Z,14.96
2017-07-28T01:32:22.003Z,14.94
2017-07-28T01:33:34.249Z,15.02
2017-07-28T01:34:46.843Z,14.97
2017-07-28T01:35:58.856Z,14.96
2017-07-28T01:37:11.114Z,14.97
2017-07-28T01:38:23.724Z,14.99
2017-07-28T01:39:36.360Z,14.99
2017-07-28T01:40:48.041Z,14.99
2017-07-28T01:42:00.577Z,15
2017-07-28T01:43:12.919Z,14.99
2017-07-28T01:44:25.485Z,14.99
2017-07-28T01:45:37.993Z,14.99
2017-07-28T01:46:50.613Z,15
2017-07-28T01:48:02.871Z,15.04
2017-07-28T01:49:14.844Z,15.04
2017-07-28T01:50:27.407Z,15.02
2017-07-28T01:51:39.735Z,14.92
2017-07-28T01:52:52.313Z,15.04
2017-07-28T01:54:04.887Z,15.07
2017-07-28T01:55:17.174Z,15.02
2017-07-28T01:56:29.822Z,15
2017-07-28T01:57:42.387Z,15.08
2017-07-28T01:58:54.945Z,15.05
2017-07-28T02:00:07.519Z,15.12
2017-07-28T02:01:19.478Z,15.07
2017-07-28T02:02:31.416Z,15.08
2017-07-28T02:03:44.021Z,15.14
2017-07-28T02:04:56.272Z,15.14
2017-07-28T02:06:08.879Z,15.02
2017-07-28T02:07:20.846Z,15.07
2017-07-28T02:08:33.136Z,15.04
2017-07-28T02:09:45.717Z,15.14
2017-07-28T02:10:58.294Z,15.08
2017-07-28T02:12:10.644Z,15.08
2017-07-28T02:13:23.204Z,15.1
2017-07-28T02:14:35.833Z,15.07
2017-07-28T02:15:48.461Z,15.05
2017-07-28T02:17:01.026Z,15.11
2017-07-28T02:18:13.564Z,15.08
2017-07-28T02:19:26.166Z,15.04
2017-07-28T02:20:38.424Z,15.14
2017-07-28T02:21:50.426Z,15.1
2017-07-28T02:23:03.028Z,15.15
2017-07-28T02:24:15.602Z,15.08
2017-07-28T02:25:28.221Z,15.07
2017-07-28T02:26:40.828Z,15.11
2017-07-28T02:27:53.370Z,15.12
2017-07-28T02:29:05.959Z,15.11
2017-07-28T02:30:18.568Z,15.04
2017-07-28T02:31:30.904Z,14.99
2017-07-28T02:32:43.180Z,15.05
2017-07-28T02:33:55.754Z,15.02
2017-07-28T02:35:08.065Z,14.93
2017-07-28T02:36:20.692Z,15
2017-07-28T02:37:33.322Z,14.92
2017-07-28T02:38:45.937Z,14.96
2017-07-28T02:39:58.516Z,14.93
2017-07-28T02:41:11.079Z,14.94
2017-07-28T02:42:23.653Z,14.92
2017-07-28T02:43:36.014Z,14.89
2017-07-28T02:44:48.605Z,14.73
2017-07-28T02:46:00.877Z,14.85
2017-07-28T02:47:13.499Z,14.74
2017-07-28T02:48:26.118Z,14.73
2017-07-28T02:49:39.033Z,14.74
2017-07-28T02:50:51.644Z,14.73
2017-07-28T02:52:04.184Z,14.73
2017-07-28T02:53:16.477Z,14.61
2017-07-28T02:54:29.073Z,14.7
2017-07-28T02:55:41.336Z,14.68
2017-07-28T02:56:53.651Z,14.62
2017-07-28T02:58:06.228Z,14.61
2017-07-28T02:59:18.775Z,14.67
2017-07-28T03:00:31.602Z,14.63
2017-07-28T03:01:44.231Z,14.66
2017-07-28T03:02:56.795Z,14.63
2017-07-28T03:04:09.359Z,14.67
2017-07-28T03:05:21.669Z,14.61
2017-07-28T03:06:33.966Z,14.59
2017-07-28T03:07:46.546Z,14.67
2017-07-28T03:08:58.787Z,14.63
2017-07-28T03:10:11.044Z,14.51
2017-07-28T03:11:23.042Z,14.61
2017-07-28T03:12:35.294Z,14.66
2017-07-28T03:13:47.915Z,14.55
2017-07-28T03:15:00.260Z,14.58
2017-07-28T03:16:12.554Z,14.61
2017-07-28T03:17:25.131Z,14.58
2017-07-28T03:18:37.715Z,14.52
2017-07-28T03:19:50.332Z,14.49
2017-07-28T03:21:02.902Z,14.41
2017-07-28T03:22:15.459Z,14.45
2017-07-28T03:23:27.736Z,14.4
2017-07-28T03:24:40.023Z,14.48
2017-07-28T03:25:52.391Z,14.43
2017-07-28T03:27:05.016Z,14.4
2017-07-28T03:28:17.608Z,14.36
2017-07-28T03:29:30.221Z,14.31
2017-07-28T03:30:42.151Z,14.31
2017-07-28T03:31:54.444Z,14.31
2017-07-28T03:33:06.975Z,14.3
2017-07-28T03:34:19.244Z,14.22
2017-07-28T03:35:31.502Z,14.3
2017-07-28T03:36:44.055Z,14.25
2017-07-28T03:37:56.337Z,14.2
2017-07-28T03:39:08.940Z,14.16
2017-07-28T03:40:21.243Z,14.25
2017-07-28T03:41:33.806Z,14.22
2017-07-28T03:42:46.116Z,14.16
2017-07-28T03:43:58.726Z,14.22
2017-07-28T03:45:11.369Z,14.2
2017-07-28T03:46:23.940Z,14.2
2017-07-28T03:47:36.548Z,14.18
2017-07-28T03:48:48.824Z,14.2
2017-07-28T03:50:01.160Z,14.19
2017-07-28T03:51:13.413Z,14.18
2017-07-28T03:52:26.009Z,14.19
2017-07-28T03:53:38.623Z,14.18
2017-07-28T03:54:51.195Z,14.2
2017-07-28T03:56:03.791Z,14.18
2017-07-28T03:57:16.361Z,14.22
2017-07-28T03:58:28.985Z,14.19
2017-07-28T03:59:41.603Z,14.13
2017-07-28T04:00:54.209Z,14.2
2017-07-28T04:02:06.782Z,14.22
2017-07-28T04:03:19.416Z,14.22
2017-07-28T04:04:31.664Z,14.36
2017-07-28T04:05:44.264Z,14.26
2017-07-28T04:06:56.620Z,14.25
2017-07-28T04:08:08.922Z,14.26
2017-07-28T04:09:21.487Z,14.31
2017-07-28T04:10:34.039Z,14.33
2017-07-28T04:11:46.629Z,14.34
2017-07-28T04:12:58.884Z,14.43
2017-07-28T04:14:11.181Z,14.41
2017-07-28T04:15:23.749Z,14.44
2017-07-28T04:16:36.370Z,14.45
2017-07-28T04:17:48.648Z,14.51
2017-07-28T04:19:01.196Z,14.37
2017-07-28T04:20:13.712Z,14.53
2017-07-28T04:21:26.234Z,14.56
2017-07-28T04:22:38.817Z,14.58
2017-07-28T04:23:51.369Z,14.61
2017-07-28T04:25:03.692Z,14.53
2017-07-28T04:26:16.261Z,14.55
2017-07-28T04:27:28.508Z,14.61
2017-07-28T04:28:41.105Z,14.61
2017-07-28T04:29:53.712Z,14.67
2017-07-28T04:31:06.339Z,14.68
2017-07-28T04:32:18.934Z,14.66
2017-07-28T04:33:31.514Z,14.66
2017-07-28T04:34:43.776Z,14.71
2017-07-28T04:35:56.334Z,14.62
2017-07-28T04:37:08.918Z,14.73
2017-07-28T04:38:21.420Z,14.78
2017-07-28T04:39:34.020Z,14.79
2017-07-28T04:40:46.292Z,14.82
2017-07-28T04:41:58.878Z,14.9
2017-07-28T04:43:11.476Z,14.9
2017-07-28T04:44:24.050Z,14.92
2017-07-28T04:45:36.714Z,15.11
2017-07-28T04:46:49.300Z,15.11
2017-07-28T04:48:01.896Z,15.1
2017-07-28T04:49:13.859Z,15.11
2017-07-28T04:50:26.173Z,15.17
2017-07-28T04:51:38.463Z,15.19
2017-07-28T04:52:50.136Z,15.15
2017-07-28T04:54:02.768Z,15.18
2017-07-28T04:55:14.431Z,15.32
2017-07-28T04:56:26.409Z,15.3
2017-07-28T04:57:39.055Z,15.27
2017-07-28T04:58:51.301Z,15.25
2017-07-28T05:00:03.898Z,15.26
2017-07-28T05:01:15.836Z,15.29
2017-07-28T05:02:28.465Z,15.29
2017-07-28T05:03:41.112Z,15.27
2017-07-28T05:04:53.359Z,15.18
2017-07-28T05:06:05.966Z,15.27
2017-07-28T05:07:18.608Z,15.32
2017-07-28T05:08:31.195Z,15.27
2017-07-28T05:09:43.815Z,15.32
2017-07-28T05:10:56.697Z,15.23
2017-07-28T05:12:09.058Z,15.29
2017-07-28T05:13:21.609Z,15.27
2017-07-28T05:14:34.172Z,15.19
2017-07-28T05:15:46.813Z,15.3
2017-07-28T05:16:59.083Z,15.3
2017-07-28T05:18:11.373Z,15.3
2017-07-28T05:19:23.962Z,15.33
2017-07-28T05:20:36.510Z,15.33
2017-07-28T05:21:49.045Z,15.36
2017-07-28T05:23:01.344Z,15.41
2017-07-28T05:24:13.608Z,15.3
2017-07-28T05:25:25.913Z,15.39
2017-07-28T05:26:38.176Z,15.41
2017-07-28T05:27:50.728Z,15.37
2017-07-28T05:29:03.313Z,15.41
2017-07-28T05:30:15.857Z,15.3
2017-07-28T05:31:28.520Z,15.44
2017-07-28T05:32:41.140Z,15.44
2017-07-28T05:33:53.770Z,15.43
2017-07-28T05:35:06.414Z,15.52
2017-07-28T05:36:18.457Z,15.47
2017-07-28T05:37:31.057Z,15.5
2017-07-28T05:38:43.698Z,15.45
2017-07-28T05:39:56.255Z,15.57
2017-07-28T05:41:08.829Z,15.62
2017-07-28T05:42:21.448Z,15.66
2017-07-28T05:43:33.952Z,15.67
2017-07-28T05:44:46.550Z,15.59
2017-07-28T05:45:59.145Z,15.69
2017-07-28T05:47:11.450Z,15.7
2017-07-28T05:48:24.022Z,15.65
2017-07-28T05:49:36.623Z,15.69
2017-07-28T05:50:48.902Z,15.69
2017-07-28T05:52:01.454Z,15.72
2017-07-28T05:53:14.121Z,15.69
2017-07-28T05:54:26.665Z,15.7
2017-07-28T05:55:39.292Z,15.69
2017-07-28T05:56:51.598Z,15.8
2017-07-28T05:58:03.877Z,15.76
2017-07-28T05:59:15.896Z,15.84
2017-07-28T06:00:28.479Z,15.92
2017-07-28T06:01:40.469Z,15.87
2017-07-28T06:02:53.038Z,15.94
2017-07-28T06:04:05.681Z,15.92
2017-07-28T06:05:18.231Z,15.94
2017-07-28T06:06:30.524Z,16
2017-07-28T06:07:43.087Z,15.94
2017-07-28T06:08:55.682Z,15.98
2017-07-28T06:10:07.979Z,16.02
2017-07-28T06:11:20.607Z,16.13
2017-07-28T06:12:33.201Z,16.06
2017-07-28T06:13:45.201Z,16.17
2017-07-28T06:14:57.781Z,16.29
2017-07-28T06:16:10.086Z,16.28
2017-07-28T06:17:22.610Z,16.31
2017-07-28T06:18:34.875Z,16.31
2017-07-28T06:19:47.468Z,16.34
2017-07-28T06:20:59.795Z,16.29
2017-07-28T06:22:11.754Z,16.36
2017-07-28T06:23:23.444Z,16.37
2017-07-28T06:24:36.005Z,16.44
2017-07-28T06:25:48.675Z,16.49
2017-07-28T06:27:01.205Z,16.54
2017-07-28T06:28:13.753Z,16.68
2017-07-28T06:29:25.687Z,16.72
2017-07-28T06:30:37.958Z,16.94
2017-07-28T06:31:50.286Z,17.01
2017-07-28T06:33:02.235Z,17.04
2017-07-28T06:34:14.831Z,17.16
2017-07-28T06:35:27.335Z,17.24
2017-07-28T06:36:39.299Z,17.44
2017-07-28T06:37:51.854Z,17.6
2017-07-28T06:39:04.126Z,17.84
2017-07-28T06:40:16.777Z,18.12
2017-07-28T06:41:29.109Z,18.36
2017-07-28T06:42:41.699Z,18.63
2017-07-28T06:43:54.270Z,19.01
2017-07-28T06:45:06.874Z,19.23
2017-07-28T06:46:19.189Z,19.41
2017-07-28T06:47:31.771Z,19.67
2017-07-28T06:48:44.030Z,19.94
2017-07-28T06:49:56.609Z,20.17
2017-07-28T06:51:09.140Z,20.48
2017-07-28T06:52:21.718Z,20.6
2017-07-28T06:53:34.032Z,20.82
2017-07-28T06:54:46.611Z,20.92
2017-07-28T06:55:59.242Z,21.19
2017-07-28T06:57:11.251Z,21.33
2017-07-28T06:58:23.855Z,21.54
2017-07-28T06:59:36.705Z,21.77
2017-07-28T07:00:48.938Z,21.92
2017-07-28T07:02:01.555Z,22.18
2017-07-28T07:03:13.581Z,22.28
2017-07-28T07:04:25.902Z,22.4
2017-07-28T07:05:38.164Z,22.67
2017-07-28T07:06:50.467Z,22.91
2017-07-28T07:08:02.457Z,23.02
2017-07-28T07:09:15.067Z,23.07
2017-07-28T07:10:27.710Z,23.2
2017-07-28T07:11:40.354Z,23.33
2017-07-28T07:12:52.423Z,23.37
2017-07-28T07:14:04.787Z,23.49
2017-07-28T07:15:17.083Z,23.55
2017-07-28T07:16:29.681Z,23.67
2017-07-28T07:17:42.261Z,23.69
2017-07-28T07:18:54.860Z,23.81
2017-07-28T07:20:06.541Z,23.77
2017-07-28T07:21:19.116Z,23.85
2017-07-28T07:22:31.657Z,23.95
2017-07-28T07:23:43.938Z,23.92
2017-07-28T07:24:56.564Z,23.92
2017-07-28T07:26:09.121Z,24.07
2017-07-28T07:27:21.759Z,24.1
2017-07-28T07:28:34.400Z,24.22
2017-07-28T07:29:46.990Z,24.25
2017-07-28T07:30:59.579Z,24.37
2017-07-28T07:32:12.185Z,24.31
2017-07-28T07:33:24.511Z,24.44
2017-07-28T07:34:36.761Z,24.56
2017-07-28T07:35:49.070Z,24.68
2017-07-28T07:37:01.635Z,24.74
2017-07-28T07:38:14.268Z,24.88
2017-07-28T07:39:26.565Z,24.92
2017-07-28T07:40:39.145Z,25.03
2017-07-28T07:41:51.154Z,25.12
2017-07-28T07:43:03.539Z,25.19
2017-07-28T07:44:15.510Z,25.25
2017-07-28T07:45:27.856Z,25.21
2017-07-28T07:46:40.487Z,25.07
2017-07-28T07:47:52.787Z,25.06
2017-07-28T07:49:05.328Z,25.18
2017-07-28T07:50:17.623Z,25.29
2017-07-28T07:51:29.603Z,25.43
2017-07-28T07:52:41.887Z,25.41
2017-07-28T07:53:54.427Z,25.55
2017-07-28T07:55:07.105Z,25.59
2017-07-28T07:56:19.695Z,25.73
2017-07-28T07:57:31.990Z,25.66
2017-07-28T07:58:44.592Z,25.61
2017-07-28T07:59:56.888Z,25.54
2017-07-28T08:01:09.170Z,25.4
2017-07-28T08:02:21.830Z,25.34
2017-07-28T08:03:34.414Z,25.31
2017-07-28T08:04:46.415Z,25.29
2017-07-28T08:05:59.048Z,25.4
2017-07-28T08:07:11.682Z,25.41
2017-07-28T08:08:24.259Z,25.37
2017-07-28T08:09:36.532Z,25.4
2017-07-28T08:10:49.140Z,25.62
2017-07-28T08:12:01.509Z,25.63
2017-07-28T08:13:14.121Z,25.61
2017-07-28T08:14:26.765Z,25.67
2017-07-28T08:15:39.387Z,25.7
2017-07-28T08:16:51.980Z,25.8
2017-07-28T08:18:04.632Z,25.73
2017-07-28T08:19:16.941Z,25.77
2017-07-28T08:20:29.548Z,25.83
2017-07-28T08:21:41.541Z,25.81
2017-07-28T08:22:53.537Z,25.95
2017-07-28T08:24:06.157Z,25.98
2017-07-28T08:25:18.679Z,26.06
2017-07-28T08:26:31.315Z,25.95
2017-07-28T08:27:43.246Z,25.83
2017-07-28T08:28:55.552Z,25.99
2017-07-28T08:30:07.547Z,25.95
2017-07-28T08:31:19.889Z,26.08
2017-07-28T08:32:32.196Z,26.1
2017-07-28T08:33:44.525Z,25.95
2017-07-28T08:34:56.864Z,25.89
2017-07-28T08:36:09.459Z,25.66
2017-07-28T08:37:21.725Z,25.51
2017-07-28T08:38:34.419Z,25.33
2017-07-28T08:39:47.056Z,25.19
2017-07-28T08:40:59.368Z,25.09
2017-07-28T08:42:11.688Z,24.94
2017-07-28T08:43:24.300Z,24.88
2017-07-28T08:44:36.264Z,24.75
2017-07-28T08:45:48.257Z,24.78
2017-07-28T08:47:00.905Z,24.82
2017-07-28T08:48:13.224Z,24.69
2017-07-28T08:49:25.232Z,24.82
2017-07-28T08:50:37.822Z,24.79
2017-07-28T08:51:50.414Z,24.62
2017-07-28T08:53:03.077Z,24.62
2017-07-28T08:54:15.736Z,24.43
2017-07-28T08:55:28.380Z,24.19
2017-07-28T08:56:40.650Z,24
2017-07-28T08:57:53.248Z,23.77
2017-07-28T08:59:05.823Z,23.59
2017-07-28T09:00:18.095Z,23.48
2017-07-28T09:01:30.790Z,23.54
2017-07-28T09:02:43.403Z,23.4
2017-07-28T09:03:55.681Z,23.29
2017-07-28T09:05:07.695Z,23.32
2017-07-28T09:06:19.658Z,23.42
2017-07-28T09:07:32.277Z,23.48
2017-07-28T09:08:44.536Z,23.4
2017-07-28T09:09:57.127Z,23.29
2017-07-28T09:11:09.679Z,23.37
2017-07-28T09:12:22.319Z,23.14
2017-07-28T09:13:34.617Z,23.25
2017-07-28T09:14:47.162Z,23.34
2017-07-28T09:15:59.461Z,23.47
2017-07-28T09:17:12.032Z,23.49
2017-07-28T09:18:24.599Z,23.56
2017-07-28T09:19:37.197Z,23.55
2017-07-28T09:20:49.497Z,23.63
2017-07-28T09:22:01.779Z,23.59
2017-07-28T09:23:14.360Z,23.63
2017-07-28T09:24:26.045Z,23.56
2017-07-28T09:25:38.367Z,23.69
2017-07-28T09:26:50.671Z,23.69
2017-07-28T09:28:02.642Z,23.77
2017-07-28T09:29:15.257Z,23.81
2017-07-28T09:30:27.886Z,23.89
2017-07-28T09:31:40.215Z,23.96
2017-07-28T09:32:52.586Z,24.14
2017-07-28T09:34:04.620Z,24.18
2017-07-28T09:35:16.901Z,24.21
2017-07-28T09:36:28.624Z,24.24
2017-07-28T09:37:41.214Z,24.22
2017-07-28T09:38:53.783Z,24.29
2017-07-28T09:40:06.318Z,24.25
2017-07-28T09:41:18.632Z,24.24
2017-07-28T09:42:31.210Z,24.36
2017-07-28T09:43:43.520Z,24.28
2017-07-28T09:44:55.526Z,24.21
2017-07-28T09:46:07.532Z,24.07
2017-07-28T09:47:19.777Z,24.13
2017-07-28T09:48:32.376Z,24.18
2017-07-28T09:49:44.679Z,24.09
2017-07-28T09:50:56.972Z,24.13
2017-07-28T09:52:09.587Z,24.19
2017-07-28T09:53:21.888Z,24.21
2017-07-28T09:54:34.452Z,24.22
2017-07-28T09:55:47.058Z,24.29
2017-07-28T09:56:59.679Z,24.37
2017-07-28T09:58:12.291Z,24.58
2017-07-28T09:59:24.885Z,24.69
2017-07-28T10:00:37.133Z,24.92
2017-07-28T10:01:49.690Z,25.12
2017-07-28T10:03:01.697Z,25.26
2017-07-28T10:04:13.729Z,25.41
2017-07-28T10:05:26.063Z,25.62
2017-07-28T10:06:38.336Z,25.66
2017-07-28T10:07:50.906Z,25.73
2017-07-28T10:09:03.178Z,25.93
2017-07-28T10:10:15.184Z,25.98
2017-07-28T10:11:27.819Z,26.1
2017-07-28T10:12:40.408Z,26.18
2017-07-28T10:13:52.722Z,26.51
2017-07-28T10:15:05.023Z,26.56
2017-07-28T10:16:17.685Z,26.81
2017-07-28T10:17:30.270Z,27.1
2017-07-28T10:18:42.510Z,27.38
2017-07-28T10:19:54.518Z,27.61
2017-07-28T10:21:07.087Z,27.82
2017-07-28T10:22:19.674Z,27.88
2017-07-28T10:23:31.977Z,28.03
2017-07-28T10:24:44.285Z,28.31
2017-07-28T10:25:56.887Z,28.53
2017-07-28T10:27:09.180Z,28.65
2017-07-28T10:28:21.493Z,28.82
2017-07-28T10:29:34.064Z,28.97
2017-07-28T10:30:46.330Z,29.24
2017-07-28T10:31:58.949Z,29.35
2017-07-28T10:33:11.576Z,29.76
2017-07-28T10:34:23.894Z,29.77
2017-07-28T10:35:35.854Z,30.11
2017-07-28T10:36:48.436Z,30.17
2017-07-28T10:38:00.488Z,30.06
2017-07-28T10:39:12.505Z,29.95
2017-07-28T10:40:24.788Z,30.01
2017-07-28T10:41:37.148Z,30.05
2017-07-28T10:42:49.890Z,30.13
2017-07-28T10:44:02.486Z,30.01
2017-07-28T10:45:14.772Z,30.18
2017-07-28T10:46:27.359Z,30.05
2017-07-28T10:47:39.657Z,29.86
2017-07-28T10:48:52.317Z,29.65
2017-07-28T10:50:04.981Z,29.65
2017-07-28T10:51:17.565Z,29.69
2017-07-28T10:52:29.502Z,29.67
2017-07-28T10:53:41.818Z,29.53
2017-07-28T10:54:53.846Z,29.49
2017-07-28T10:56:05.783Z,29.53
2017-07-28T10:57:17.779Z,29.47
2017-07-28T10:58:30.369Z,29.53
2017-07-28T10:59:42.632Z,29.44
2017-07-28T11:00:54.661Z,29.5
2017-07-28T11:02:06.985Z,29.35
2017-07-28T11:03:19.304Z,29.15
2017-07-28T11:04:31.971Z,29.07
2017-07-28T11:05:44.613Z,28.87
2017-07-28T11:06:57.262Z,28.68
2017-07-28T11:08:09.559Z,28.5
2017-07-28T11:09:22.154Z,28.16
2017-07-28T11:10:34.786Z,27.98
2017-07-28T11:11:47.091Z,27.83
2017-07-28T11:12:59.403Z,27.66
2017-07-28T11:14:11.449Z,27.73
2017-07-28T11:15:23.702Z,27.68
2017-07-28T11:16:36.004Z,27.71
2017-07-28T11:17:48.598Z,27.55
2017-07-28T11:19:01.148Z,27.45
2017-07-28T11:20:14.014Z,27.43
2017-07-28T11:21:26.606Z,27.43
2017-07-28T11:22:38.632Z,27.33
2017-07-28T11:23:50.875Z,27.29
2017-07-28T11:25:03.163Z,27.26
2017-07-28T11:26:15.407Z,27.19
2017-07-28T11:27:27.668Z,27.2
2017-07-28T11:28:39.932Z,27.22
2017-07-28T11:29:52.543Z,27.28
2017-07-28T11:31:05.156Z,27.23
2017-07-28T11:32:17.761Z,27.22
2017-07-28T11:33:29.765Z,27.25
2017-07-28T11:34:42.077Z,27.34
2017-07-28T11:35:54.059Z,27.37
2017-07-28T11:37:06.596Z,27.37
2017-07-28T11:38:18.581Z,27.37
2017-07-28T11:39:30.829Z,27.5
2017-07-28T11:40:43.197Z,27.45
2017-07-28T11:41:56.088Z,27.47
2017-07-28T11:43:08.726Z,27.53
2017-07-28T11:44:20.804Z,27.55
2017-07-28T11:45:33.364Z,27.53
2017-07-28T11:46:46.014Z,27.58
2017-07-28T11:47:58.335Z,27.63
2017-07-28T11:49:10.896Z,27.72
2017-07-28T11:50:23.161Z,27.64
2017-07-28T11:51:35.446Z,27.53
2017-07-28T11:52:47.700Z,27.44
2017-07-28T11:53:59.720Z,27.52
2017-07-28T11:55:12.367Z,27.41
2017-07-28T11:56:25.038Z,27.44
2017-07-28T11:57:37.039Z,27.43
2017-07-28T11:58:49.673Z,27.41
2017-07-28T12:00:01.979Z,27.5
2017-07-28T12:01:14.251Z,27.58
2017-07-28T12:02:26.780Z,27.71
2017-07-28T12:03:39.070Z,27.81
2017-07-28T12:04:51.686Z,27.85
2017-07-28T12:06:04.249Z,28.01
2017-07-28T12:07:16.846Z,28.09
2017-07-28T12:08:29.491Z,28.27
2017-07-28T12:09:41.759Z,28.38
2017-07-28T12:10:54.043Z,28.56
2017-07-28T12:12:06.337Z,28.52
2017-07-28T12:13:19.035Z,28.71
2017-07-28T12:14:31.631Z,28.67
2017-07-28T12:15:44.271Z,28.7
2017-07-28T12:16:55.637Z,28.7
2017-07-28T12:18:07.633Z,28.77
2017-07-28T12:19:20.004Z,28.68
2017-07-28T12:20:32.325Z,28.84
2017-07-28T12:21:44.855Z,28.74
2017-07-28T12:22:57.438Z,28.83
2017-07-28T12:24:09.419Z,28.83
2017-07-28T12:25:22.009Z,28.87
2017-07-28T12:26:34.572Z,28.97
2017-07-28T12:27:47.216Z,29.09
2017-07-28T12:28:59.470Z,29.05
2017-07-28T12:30:10.866Z,29.1
2017-07-28T12:31:23.500Z,29.1
2017-07-28T12:32:35.790Z,29.06
2017-07-28T12:33:48.094Z,28.94
2017-07-28T12:35:00.714Z,28.94
2017-07-28T12:36:13.046Z,29.05
2017-07-28T12:37:25.341Z,29.15
2017-07-28T12:38:37.610Z,29.3
2017-07-28T12:39:50.180Z,29.22
2017-07-28T12:41:02.187Z,29.07
2017-07-28T12:42:14.886Z,28.97
2017-07-28T12:43:27.505Z,28.92
2017-07-28T12:44:39.484Z,28.82
2017-07-28T12:45:52.103Z,28.67
2017-07-28T12:47:04.726Z,28.34
2017-07-28T12:48:17.363Z,28.22
2017-07-28T12:49:30.010Z,28
2017-07-28T12:50:42.616Z,27.66
2017-07-28T12:51:54.962Z,27.55
2017-07-28T12:53:07.583Z,27.38
2017-07-28T12:54:19.842Z,27.33
2017-07-28T12:55:32.414Z,27.11
2017-07-28T12:56:44.355Z,27.08
2017-07-28T12:57:56.897Z,26.91
2017-07-28T12:59:09.538Z,26.76
2017-07-28T13:00:22.174Z,26.63
2017-07-28T13:01:34.774Z,26.59
2017-07-28T13:02:47.414Z,26.53
2017-07-28T13:03:59.952Z,26.64
2017-07-28T13:05:11.913Z,26.86
2017-07-28T13:06:24.580Z,26.97
2017-07-28T13:07:36.552Z,27.28
2017-07-28T13:08:49.169Z,27.6
2017-07-28T13:10:01.691Z,27.82
2017-07-28T13:11:13.752Z,28.06
2017-07-28T13:12:25.447Z,28.28
2017-07-28T13:13:37.451Z,28.4
2017-07-28T13:14:50.022Z,28.47
2017-07-28T13:16:02.683Z,28.52
2017-07-28T13:17:14.683Z,28.59
2017-07-28T13:18:26.954Z,28.55
2017-07-28T13:19:39.537Z,28.47
2017-07-28T13:20:52.090Z,28.38
2017-07-28T13:22:04.677Z,28.28
2017-07-28T13:23:16.730Z,28.23
2017-07-28T13:24:29.355Z,28.15
2017-07-28T13:25:41.940Z,28.18
2017-07-28T13:26:54.605Z,28.3
2017-07-28T13:28:07.288Z,28.38
2017-07-28T13:29:19.249Z,28.52
2017-07-28T13:30:31.919Z,28.67
2017-07-28T13:31:44.495Z,28.75
2017-07-28T13:32:56.785Z,28.84
2017-07-28T13:34:09.400Z,28.87
2017-07-28T13:35:21.995Z,29.03
2017-07-28T13:36:33.961Z,29.15
2017-07-28T13:37:46.545Z,29.03
2017-07-28T13:38:59.118Z,29.07
2017-07-28T13:40:11.387Z,28.94
2017-07-28T13:41:23.934Z,28.68
2017-07-28T13:42:36.260Z,28.68
2017-07-28T13:43:48.874Z,28.7
2017-07-28T13:45:01.500Z,28.77
2017-07-28T13:46:13.842Z,28.82
2017-07-28T13:47:25.845Z,28.84
2017-07-28T13:48:38.511Z,28.87
2017-07-28T13:49:51.062Z,29
2017-07-28T13:51:03.398Z,29.05
2017-07-28T13:52:15.788Z,29.24
2017-07-28T13:53:28.398Z,29.32
2017-07-28T13:54:41.013Z,29.42
2017-07-28T13:55:53.011Z,29.53
2017-07-28T13:57:05.365Z,29.67
2017-07-28T13:58:17.079Z,29.76
2017-07-28T13:59:29.385Z,29.92
2017-07-28T14:00:42.004Z,30.17
2017-07-28T14:01:54.320Z,30.32
2017-07-28T14:03:06.911Z,30.39
2017-07-28T14:04:19.148Z,30.43
2017-07-28T14:05:31.783Z,30.61
2017-07-28T14:06:44.347Z,30.77
2017-07-28T14:07:56.618Z,30.89
2017-07-28T14:09:08.965Z,30.91
2017-07-28T14:10:21.263Z,30.85
2017-07-28T14:11:33.573Z,30.92
2017-07-28T14:12:46.168Z,30.91
2017-07-28T14:13:58.485Z,30.96
2017-07-28T14:15:11.098Z,30.92
2017-07-28T14:16:23.716Z,30.91
2017-07-28T14:17:36.270Z,30.93
2017-07-28T14:18:48.866Z,31.1
2017-07-28T14:20:01.519Z,31.08
2017-07-28T14:21:14.124Z,31.15
2017-07-28T14:22:26.727Z,31.17
2017-07-28T14:23:38.722Z,31.1
2017-07-28T14:24:50.966Z,30.86
2017-07-28T14:26:03.318Z,30.59
2017-07-28T14:27:15.615Z,30.29
2017-07-28T14:28:28.286Z,30.18
2017-07-28T14:29:40.869Z,30.23
2017-07-28T14:30:53.124Z,30.08
2017-07-28T14:32:05.711Z,29.92
2017-07-28T14:33:18.343Z,29.77
2017-07-28T14:34:30.952Z,29.71
2017-07-28T14:35:43.577Z,29.67
2017-07-28T14:36:56.205Z,29.37
2017-07-28T14:38:08.569Z,29.18
2017-07-28T14:39:20.836Z,29
2017-07-28T14:40:32.757Z,28.83
2017-07-28T14:41:45.383Z,28.84
2017-07-28T14:42:58.030Z,28.82
2017-07-28T14:44:10.700Z,28.67
2017-07-28T14:45:23.299Z,28.65
2017-07-28T14:46:35.954Z,28.57
2017-07-28T14:47:48.239Z,28.57
2017-07-28T14:49:00.536Z,28.65
2017-07-28T14:50:12.829Z,28.59
2017-07-28T14:51:25.445Z,28.46
2017-07-28T14:52:38.053Z,28.43
2017-07-28T14:53:50.666Z,28.2
2017-07-28T14:55:03.344Z,28.1
2017-07-28T14:56:15.990Z,28.01
2017-07-28T14:57:28.573Z,27.79
2017-07-28T14:58:40.946Z,27.73
2017-07-28T14:59:53.260Z,27.48
2017-07-28T15:01:05.481Z,27.41
2017-07-28T15:02:18.120Z,27.22
2017-07-28T15:03:30.747Z,26.98
2017-07-28T15:04:43.377Z,26.89
2017-07-28T15:05:55.951Z,26.73
2017-07-28T15:07:08.320Z,26.49
2017-07-28T15:08:19.740Z,26.49
2017-07-28T15:09:32.359Z,26.37
2017-07-28T15:10:44.999Z,26.08
2017-07-28T15:11:57.568Z,25.98
2017-07-28T15:13:10.223Z,25.85
2017-07-28T15:14:22.503Z,25.77
2017-07-28T15:15:35.119Z,25.63
2017-07-28T15:16:47.669Z,25.58
2017-07-28T15:18:00.231Z,25.37
2017-07-28T15:19:12.187Z,25.34
2017-07-28T15:20:24.189Z,25.22
2017-07-28T15:21:36.395Z,25.18
2017-07-28T15:22:48.968Z,25.04
2017-07-28T15:24:01.571Z,24.85
2017-07-28T15:25:13.273Z,24.71
2017-07-28T15:26:25.810Z,24.71
2017-07-28T15:27:38.101Z,24.69
2017-07-28T15:28:50.662Z,24.63
2017-07-28T15:30:03.188Z,24.58
2017-07-28T15:31:15.197Z,24.59
2017-07-28T15:32:27.799Z,24.4
2017-07-28T15:33:40.406Z,24.47
2017-07-28T15:34:52.674Z,24.5
2017-07-28T15:36:05.306Z,24.38